Time;durP1;ratioP1;P1;durP2;ratioP2;P2;SDS_P1;SDS_P2;PMS_P1;PMS_P2;Temp;Humidity;BMP_temperature;BMP_pressure;BME280_temperature;BME280_humidity;BME280_pressure;Samples;Min_cycle;Max_cycle;Signal;HPM_P1;HPM_P2
2021/03/31 00:00:25;;;;;;;7.75;5.37;;;;;;;18.21;42.18;100931.86;1790705;79;21150;-65
2021/03/31 00:02:57;;;;;;;7.67;5.30;;;;;;;18.19;42.24;100930.70;1714130;81;22573;-66
2021/03/31 00:05:29;;;;;;;7.00;5.15;;;;;;;18.18;42.25;100926.36;1759107;80;21207;-66
2021/03/31 00:07:57;;;;;;;7.10;5.42;;;;;;;18.15;42.27;100921.34;1746380;79;21661;-66
2021/03/31 00:10:28;;;;;;;6.00;5.30;;;;;;;18.16;42.36;100925.72;1751568;79;21127;-66
2021/03/31 00:12:56;;;;;;;6.33;5.20;;;;;;;18.15;42.34;100921.86;1751822;80;21174;-67
2021/03/31 00:15:25;;;;;;;7.10;5.50;;;;;;;18.14;42.38;100925.07;1744673;80;21198;-67
2021/03/31 00:17:54;;;;;;;6.47;5.17;;;;;;;18.12;42.38;100917.70;1732308;79;21190;-66
2021/03/31 00:20:22;;;;;;;7.50;5.40;;;;;;;18.11;42.35;100906.62;1749160;79;21287;-65
2021/03/31 00:22:50;;;;;;;7.17;5.90;;;;;;;18.10;42.43;100906.31;1787079;79;21185;-66
2021/03/31 00:25:19;;;;;;;7.70;6.30;;;;;;;18.10;42.43;100905.45;1781798;77;21194;-65
2021/03/31 00:27:48;;;;;;;6.67;5.25;;;;;;;18.09;42.40;100907.31;1798744;77;21110;-66
2021/03/31 00:30:19;;;;;;;7.10;5.80;;;;;;;18.07;42.45;100902.64;1787127;79;21232;-66
2021/03/31 00:32:47;;;;;;;6.45;5.12;;;;;;;18.06;42.44;100903.16;1786581;77;21344;-66
2021/03/31 00:35:16;;;;;;;6.80;5.05;;;;;;;18.05;42.40;100906.86;1799891;77;21602;-66
2021/03/31 00:37:43;;;;;;;5.80;5.20;;;;;;;18.04;42.38;100898.97;1793255;79;21162;-66
2021/03/31 00:40:18;;;;;;;7.55;5.58;;;;;;;18.03;42.41;100908.91;1785694;77;21181;-66
2021/03/31 00:42:48;;;;;;;7.47;5.60;;;;;;;18.02;42.44;100901.02;1806492;79;21102;-66
2021/03/31 00:45:17;;;;;;;6.30;5.05;;;;;;;18.02;42.41;100901.02;1805942;77;21518;-66
2021/03/31 00:47:48;;;;;;;6.80;5.22;;;;;;;17.99;42.46;100898.73;1799507;77;21166;-66
2021/03/31 00:50:17;;;;;;;7.15;5.45;;;;;;;18.00;42.46;100892.31;1782262;77;21185;-67
2021/03/31 00:52:47;;;;;;;8.30;5.58;;;;;;;17.99;42.44;100888.80;1785653;77;21198;-67
2021/03/31 00:55:17;;;;;;;6.80;5.03;;;;;;;17.98;42.39;100891.18;1794260;77;21190;-66
2021/03/31 00:57:50;;;;;;;7.40;6.37;;;;;;;17.97;42.48;100890.84;1801716;79;21328;-66
2021/03/31 01:00:21;;;;;;;7.00;5.33;;;;;;;17.96;42.50;100885.13;1803263;77;21166;-66
2021/03/31 01:02:52;;;;;;;7.35;5.83;;;;;;;17.95;42.54;100884.83;1796163;78;21182;-67
2021/03/31 01:05:26;;;;;;;7.67;5.30;;;;;;;17.95;42.52;100881.31;1797795;77;21130;-66
2021/03/31 01:07:55;;;;;;;5.75;4.85;;;;;;;17.92;42.53;100881.16;1793896;77;21121;-66
2021/03/31 01:10:35;;;;;;;7.67;5.45;;;;;;;17.92;42.58;100882.50;1795854;79;21186;-66
2021/03/31 01:13:45;;;;;;;6.22;5.03;;;;;;;17.91;42.51;100876.82;1784339;77;21193;-65
2021/03/31 01:16:27;;;;;;;6.60;5.20;;;;;;;17.90;42.58;100879.69;1782181;79;21141;-65
2021/03/31 01:19:32;;;;;;;7.42;5.87;;;;;;;17.85;42.58;100864.96;1783937;79;21094;-66
2021/03/31 01:22:41;;;;;;;5.65;4.95;;;;;;;17.85;42.66;100867.66;1800165;77;21193;-65
2021/03/31 01:25:31;;;;;;;6.58;5.12;;;;;;;17.81;42.76;100867.67;1787294;79;22267;-65
2021/03/31 01:28:29;;;;;;;6.67;4.92;;;;;;;17.77;42.79;100854.78;1813743;79;21757;-64
2021/03/31 01:31:13;;;;;;;6.83;5.10;;;;;;;17.74;42.86;100851.14;1760424;79;21122;-66
2021/03/31 01:34:05;;;;;;;6.45;5.00;;;;;;;17.73;42.90;100855.70;1798449;77;21182;-66
2021/03/31 01:36:38;;;;;;;7.10;5.33;;;;;;;17.68;42.95;100845.48;1786682;77;21108;-66
2021/03/31 01:39:14;;;;;;;7.53;4.95;;;;;;;17.68;42.97;100848.70;1804845;79;21407;-65
2021/03/31 01:41:43;;;;;;;8.50;5.42;;;;;;;17.67;42.98;100838.95;1778310;79;26787;-65
2021/03/31 01:44:15;;;;;;;6.22;4.87;;;;;;;17.66;43.05;100838.65;1803585;79;21144;-65
2021/03/31 01:46:56;;;;;;;6.28;5.33;;;;;;;17.69;43.06;100834.22;1787954;79;28633;-67
2021/03/31 01:49:27;;;;;;;6.65;5.12;;;;;;;17.64;43.08;100834.80;1753040;80;21160;-65
2021/03/31 01:52:03;;;;;;;5.70;4.78;;;;;;;17.65;43.05;100839.66;1753891;80;21191;-66
2021/03/31 01:54:35;;;;;;;7.22;5.97;;;;;;;17.65;43.07;100830.25;1752734;80;21075;-66
2021/03/31 01:57:06;;;;;;;7.50;5.67;;;;;;;17.63;43.11;100835.80;1762906;79;21135;-65
2021/03/31 01:59:42;;;;;;;7.83;6.05;;;;;;;17.64;43.13;100831.28;1768321;80;21651;-65
2021/03/31 02:02:14;;;;;;;5.87;4.83;;;;;;;17.64;43.12;100829.95;1842530;77;21170;-66
2021/03/31 02:04:44;;;;;;;7.17;5.58;;;;;;;17.63;43.11;100826.92;1764064;80;21191;-65
2021/03/31 02:07:15;;;;;;;7.67;4.87;;;;;;;17.62;43.12;100822.58;1749768;81;21123;-65
2021/03/31 02:09:47;;;;;;;6.45;5.25;;;;;;;17.61;43.12;100827.10;1762979;80;21407;-66
2021/03/31 02:12:22;;;;;;;6.17;5.20;;;;;;;17.60;43.14;100825.97;1767585;80;21369;-65
2021/03/31 02:14:53;;;;;;;;;;;;;;;17.61;43.12;100832.48;1828935;77;21107;-66
2021/03/31 02:17:29;;;;;;;8.18;5.35;;;;;;;17.59;43.17;100828.32;1853811;77;21380;-65
2021/03/31 02:19:58;;;;;;;7.72;5.28;;;;;;;17.51;43.35;100824.41;1777452;79;21163;-65
2021/03/31 02:22:29;;;;;;;6.70;5.25;;;;;;;17.51;43.31;100817.69;1802881;79;21151;-65
2021/03/31 02:24:58;;;;;;;8.48;5.92;;;;;;;17.51;43.33;100821.20;1768998;79;21194;-65
2021/03/31 02:27:28;;;;;;;6.83;5.55;;;;;;;17.52;43.35;100812.63;1774954;79;21183;-64
2021/03/31 02:29:57;;;;;;;7.00;5.20;;;;;;;17.52;43.29;100811.27;1766759;79;22007;-65
2021/03/31 02:32:30;;;;;;;6.70;5.80;;;;;;;17.51;43.32;100809.11;1766695;79;21182;-65
2021/03/31 02:34:59;;;;;;;6.47;5.55;;;;;;;17.51;43.38;100810.97;1767016;79;21186;-65
2021/03/31 02:37:26;;;;;;;7.37;5.62;;;;;;;17.51;43.34;100813.66;1773928;80;21166;-64
2021/03/31 02:39:55;;;;;;;7.53;5.47;;;;;;;17.51;43.34;100807.77;1770305;79;21200;-65
2021/03/31 02:42:25;;;;;;;7.53;5.87;;;;;;;17.51;43.34;100809.11;1771556;80;21386;-66
2021/03/31 02:44:57;;;;;;;7.50;5.62;;;;;;;17.51;43.34;100805.59;1755146;80;21175;-64
2021/03/31 02:47:28;;;;;;;7.03;5.95;;;;;;;17.49;43.32;100802.58;1807124;78;21111;-65
2021/03/31 02:49:58;;;;;;;7.40;5.20;;;;;;;17.49;43.43;100805.78;1817540;77;21503;-65
2021/03/31 02:52:30;;;;;;;6.90;5.83;;;;;;;17.48;43.37;100805.44;1769277;79;21262;-65
2021/03/31 02:55:01;;;;;;;7.53;5.80;;;;;;;17.48;43.39;100800.06;1797269;78;21224;-65
2021/03/31 02:57:30;;;;;;;10.53;6.25;;;;;;;17.46;43.42;100802.97;1816808;78;21213;-65
2021/03/31 03:00:00;;;;;;;7.90;5.60;;;;;;;17.45;43.36;100802.63;1810269;78;21128;-65
2021/03/31 03:02:27;;;;;;;6.78;5.83;;;;;;;17.46;43.37;100798.94;1740315;81;21158;-65
2021/03/31 03:04:55;;;;;;;6.50;5.53;;;;;;;17.45;43.40;100797.78;1802937;78;21417;-63
2021/03/31 03:07:22;;;;;;;7.22;5.70;;;;;;;17.45;43.33;100799.12;1813524;78;22401;-64
2021/03/31 03:09:50;;;;;;;6.37;5.65;;;;;;;17.44;43.43;100798.30;1768524;79;21167;-65
2021/03/31 03:12:20;;;;;;;7.92;6.37;;;;;;;17.43;43.42;100795.79;1733716;79;21123;-66
2021/03/31 03:14:49;;;;;;;6.78;5.67;;;;;;;17.41;43.42;100797.31;1801722;78;21151;-66
2021/03/31 03:17:19;;;;;;;6.22;5.33;;;;;;;17.42;43.45;100796.80;1806025;77;21151;-66
2021/03/31 03:19:50;;;;;;;7.37;6.35;;;;;;;17.40;43.42;100794.32;1778281;79;21583;-65
2021/03/31 03:22:17;;;;;;;6.83;5.90;;;;;;;17.40;43.45;100793.46;1816795;78;21198;-67
2021/03/31 03:24:47;;;;;;;7.85;6.15;;;;;;;17.40;43.50;100784.92;1763193;79;21106;-66
2021/03/31 03:27:17;;;;;;;6.95;5.85;;;;;;;17.39;43.48;100792.64;1803314;78;21162;-66
2021/03/31 03:29:47;;;;;;;6.05;5.45;;;;;;;17.38;43.44;100782.90;1790446;79;21111;-66
2021/03/31 03:32:17;;;;;;;6.08;5.33;;;;;;;17.38;43.51;100784.77;1818515;77;21368;-66
2021/03/31 03:34:50;;;;;;;7.05;5.55;;;;;;;17.36;43.56;100779.57;1764707;81;21162;-65
2021/03/31 03:37:18;;;;;;;7.03;6.08;;;;;;;17.36;43.55;100784.12;1790817;78;21170;-65
2021/03/31 03:39:46;;;;;;;6.97;5.92;;;;;;;17.36;43.60;100792.17;1806875;78;21177;-65
2021/03/31 03:42:15;;;;;;;7.70;6.22;;;;;;;17.34;43.66;100785.64;1776475;79;21167;-67
2021/03/31 03:44:44;;;;;;;8.50;5.92;;;;;;;17.34;43.64;100780.79;1808092;78;21169;-66
2021/03/31 03:47:12;;;;;;;7.65;5.67;;;;;;;17.33;43.62;100781.31;1826461;77;21175;-65
2021/03/31 03:49:41;;;;;;;7.58;6.03;;;;;;;17.33;43.62;100784.52;1824229;77;21151;-65
2021/03/31 03:52:10;;;;;;;7.25;6.40;;;;;;;17.31;43.64;100782.00;1823191;77;21170;-65
2021/03/31 03:54:38;;;;;;;7.62;6.15;;;;;;;17.33;43.62;100781.83;1825733;77;21194;-66
2021/03/31 03:57:07;;;;;;;7.45;5.78;;;;;;;17.30;43.64;100783.84;1794512;79;21378;-68
2021/03/31 03:59:35;;;;;;;6.78;5.80;;;;;;;17.30;43.72;100780.33;1780609;79;21862;-65
2021/03/31 04:02:04;;;;;;;6.80;6.10;;;;;;;17.29;43.70;100778.67;1768302;79;21231;-66
2021/03/31 04:04:33;;;;;;;7.58;6.28;;;;;;;17.29;43.72;100774.65;1778759;79;21606;-67
2021/03/31 04:07:00;;;;;;;7.00;6.30;;;;;;;17.27;43.74;100773.48;1766122;79;21179;-69
2021/03/31 04:09:27;;;;;;;7.25;6.08;;;;;;;17.27;43.79;100773.48;1765421;79;21194;-68
2021/03/31 04:11:55;;;;;;;7.50;6.12;;;;;;;17.26;43.79;100766.44;1767224;79;21167;-67
2021/03/31 04:14:23;;;;;;;8.15;5.95;;;;;;;17.26;43.79;100770.98;1766184;79;21248;-67
2021/03/31 04:16:51;;;;;;;7.60;6.17;;;;;;;17.25;43.87;100769.33;1766028;79;21202;-67
2021/03/31 04:19:22;;;;;;;6.47;5.47;;;;;;;17.25;43.82;100768.81;1779466;79;21117;-67
2021/03/31 04:21:49;;;;;;;7.90;5.97;;;;;;;17.25;43.87;100766.65;1754666;80;21500;-65
2021/03/31 04:24:16;;;;;;;7.40;6.60;;;;;;;17.24;43.96;100769.00;1758810;80;21166;-67
2021/03/31 04:26:45;;;;;;;6.65;5.95;;;;;;;17.24;43.93;100763.63;1765817;80;21128;-67
2021/03/31 04:29:13;;;;;;;7.20;5.97;;;;;;;17.23;43.94;100770.00;1744279;80;21147;-68
2021/03/31 04:31:41;;;;;;;7.08;6.12;;;;;;;17.22;43.94;100766.48;1824917;77;21111;-66
2021/03/31 04:34:10;;;;;;;9.13;6.58;;;;;;;17.22;43.93;100768.35;1802970;77;21441;-66
2021/03/31 04:36:37;;;;;;;9.98;7.12;;;;;;;17.21;43.95;100761.30;1824989;77;21175;-66
2021/03/31 04:39:05;;;;;;;8.10;6.28;;;;;;;17.20;44.00;100760.48;1767072;79;21175;-66
2021/03/31 04:41:36;;;;;;;7.15;6.12;;;;;;;17.19;44.02;100755.28;1774905;79;21191;-66
2021/03/31 04:44:04;;;;;;;8.23;6.20;;;;;;;17.19;44.03;100764.69;1781680;79;21164;-66
2021/03/31 04:46:31;;;;;;;7.75;6.40;;;;;;;17.18;44.03;100759.83;1770614;79;21390;-65
2021/03/31 04:49:01;;;;;;;6.75;5.92;;;;;;;17.18;44.03;100760.34;1771170;79;21192;-66
2021/03/31 04:51:28;;;;;;;7.12;6.30;;;;;;;17.16;44.09;100760.53;1766085;79;21218;-66
2021/03/31 04:53:56;;;;;;;8.45;7.08;;;;;;;17.17;44.07;100761.35;1767647;79;21176;-65
2021/03/31 04:56:23;;;;;;;7.20;6.50;;;;;;;17.15;44.10;100759.37;1775099;79;21151;-66
2021/03/31 04:58:51;;;;;;;7.22;5.95;;;;;;;17.15;44.12;100766.08;1779717;79;21367;-66
2021/03/31 05:01:18;;;;;;;7.90;7.05;;;;;;;17.15;44.18;100756.69;1783526;79;21139;-66
2021/03/31 05:03:46;;;;;;;7.10;5.92;;;;;;;17.14;44.18;100760.41;1772953;79;21164;-65
2021/03/31 05:06:13;;;;;;;8.08;6.60;;;;;;;17.14;44.25;100767.11;1769623;79;21257;-66
2021/03/31 05:08:42;;;;;;;6.92;6.15;;;;;;;17.13;44.26;100767.60;1768461;80;21174;-65
2021/03/31 05:11:10;;;;;;;7.60;6.28;;;;;;;17.12;44.33;100768.64;1758180;80;21897;-66
2021/03/31 05:13:37;;;;;;;8.28;6.78;;;;;;;17.13;44.21;100772.14;1825643;77;21162;-66
2021/03/31 05:16:06;;;;;;;7.30;6.60;;;;;;;17.13;44.27;100766.77;1824932;77;21103;-66
2021/03/31 05:18:33;;;;;;;7.55;6.83;;;;;;;17.11;44.30;100766.95;1765161;79;21612;-65
2021/03/31 05:21:00;;;;;;;7.70;6.45;;;;;;;17.12;44.29;100762.44;1765054;80;21573;-65
2021/03/31 05:23:28;;;;;;;7.55;6.72;;;;;;;17.12;44.28;100767.30;1841249;77;21556;-66
2021/03/31 05:25:56;;;;;;;6.97;6.28;;;;;;;17.13;44.36;100760.06;1829042;77;21172;-67
2021/03/31 05:28:23;;;;;;;9.35;7.87;;;;;;;17.13;44.34;100761.41;1824537;78;21148;-66
2021/03/31 05:30:51;;;;;;;9.18;7.60;;;;;;;17.14;44.40;100763.09;1755316;79;21195;-65
2021/03/31 05:33:19;;;;;;;8.65;6.60;;;;;;;17.13;44.35;100756.86;1775633;79;21177;-66
2021/03/31 05:35:47;;;;;;;9.45;6.47;;;;;;;17.15;44.29;100758.84;1771078;80;21221;-66
2021/03/31 05:38:16;;;;;;;7.67;6.85;;;;;;;17.15;44.34;100760.19;1765656;81;21207;-66
2021/03/31 05:40:44;;;;;;;7.12;6.40;;;;;;;17.15;44.34;100756.16;1766194;79;21139;-66
2021/03/31 05:43:11;;;;;;;7.62;6.80;;;;;;;17.15;44.36;100756.16;1767824;79;21171;-66
2021/03/31 05:45:40;;;;;;;8.45;7.17;;;;;;;17.15;44.44;100753.48;1766149;79;21179;-67
2021/03/31 05:48:10;;;;;;;7.80;6.47;;;;;;;17.17;44.36;100754.64;1769213;80;21300;-66
2021/03/31 05:50:37;;;;;;;7.75;6.65;;;;;;;17.17;44.38;100754.16;1786812;79;21276;-66
2021/03/31 05:53:05;;;;;;;9.63;6.92;;;;;;;17.18;44.38;100755.80;1763278;80;21166;-66
2021/03/31 05:55:32;;;;;;;7.83;6.72;;;;;;;17.18;44.45;100747.75;1779384;79;21153;-66
2021/03/31 05:58:00;;;;;;;8.20;6.97;;;;;;;17.19;44.42;100745.89;1780125;80;21209;-66
2021/03/31 06:00:27;;;;;;;8.13;6.65;;;;;;;17.19;44.42;100739.17;1770283;79;21524;-66
2021/03/31 06:02:55;;;;;;;8.68;7.60;;;;;;;17.19;44.41;100742.72;1769740;80;21159;-67
2021/03/31 06:05:23;;;;;;;9.50;7.20;;;;;;;17.19;44.48;100740.03;1718783;82;21316;-66
2021/03/31 06:07:50;;;;;;;8.98;7.42;;;;;;;17.19;44.45;100737.83;1727219;82;21211;-66
2021/03/31 06:10:23;;;;;;;8.30;7.28;;;;;;;17.18;44.48;100737.52;1738866;81;21202;-66
2021/03/31 06:13:01;;;;;;;8.48;7.30;;;;;;;17.19;44.48;100739.17;1750048;81;21375;-66
2021/03/31 06:15:46;;;;;;;10.72;7.97;;;;;;;17.19;44.51;100736.00;1717377;82;21151;-66
2021/03/31 06:18:17;;;;;;;8.70;7.12;;;;;;;17.19;44.49;100737.34;1732479;82;21655;-68
2021/03/31 06:20:59;;;;;;;7.78;7.00;;;;;;;17.20;44.54;100739.52;1763061;80;21610;-66
2021/03/31 06:26:27;;;;;;;8.30;7.40;;;;;;;17.17;44.54;100725.11;1745028;81;21392;-68
2021/03/31 06:29:01;;;;;;;9.60;7.85;;;;;;;17.17;44.71;100725.11;1753225;81;21123;-70
2021/03/31 06:31:36;;;;;;;9.18;7.40;;;;;;;17.15;44.92;100726.62;1762053;80;21172;-68
2021/03/31 06:34:17;;;;;;;7.97;7.10;;;;;;;17.16;45.21;100714.06;1769166;79;21162;-67
2021/03/31 06:36:55;;;;;;;9.18;7.87;;;;;;;17.18;45.26;100717.39;1769071;79;21147;-66
2021/03/31 06:39:29;;;;;;;8.88;7.40;;;;;;;17.18;45.31;100706.65;1763484;80;21436;-66
2021/03/31 06:47:35;;;;;;;8.98;8.08;;;;;;;17.14;45.44;100698.66;1815098;77;21416;-68
2021/03/31 06:50:00;;;;;;;9.63;7.47;;;;;;;17.17;45.48;100703.62;1801460;77;22807;-68
2021/03/31 06:52:27;;;;;;;10.30;8.25;;;;;;;17.19;45.53;100698.90;1818889;78;21165;-67
2021/03/31 06:57:35;;;;;;;10.38;8.40;;;;;;;17.27;45.45;100704.19;1770324;79;28927;-68
2021/03/31 07:00:14;;;;;;;10.03;8.45;;;;;;;17.25;45.47;100697.66;1728721;82;21183;-66
2021/03/31 07:05:21;;;;;;;9.05;7.95;;;;;;;17.30;45.53;100685.81;1801007;79;28397;-69
2021/03/31 07:07:48;;;;;;;8.95;7.95;;;;;;;17.29;45.57;100688.72;1789574;78;21143;-68
2021/03/31 07:10:19;;;;;;;10.82;7.83;;;;;;;17.29;45.56;100682.83;1799931;78;21237;-67
2021/03/31 07:12:51;;;;;;;9.33;7.58;;;;;;;17.31;45.71;100690.70;1811617;78;21667;-67
2021/03/31 07:15:24;;;;;;;9.60;8.35;;;;;;;17.32;45.66;100686.97;1805056;78;21164;-67
2021/03/31 07:17:56;;;;;;;9.18;7.90;;;;;;;17.35;45.59;100679.07;1767549;80;21631;-67
2021/03/31 07:20:27;;;;;;;8.93;7.53;;;;;;;17.36;45.70;100683.41;1763164;80;21633;-67
2021/03/31 07:22:55;;;;;;;10.13;8.28;;;;;;;17.37;45.57;100680.53;1808357;78;21603;-67
2021/03/31 07:25:23;;;;;;;10.38;8.08;;;;;;;17.38;45.60;100680.84;1773396;80;21639;-66
2021/03/31 07:27:51;;;;;;;8.28;7.45;;;;;;;17.40;45.66;100686.03;1789226;79;21175;-66
2021/03/31 07:30:36;;;;;;;8.48;7.53;;;;;;;17.41;45.72;100683.16;1777620;79;21163;-66
2021/03/31 07:33:13;;;;;;;10.20;8.05;;;;;;;17.42;45.84;100682.16;1750577;81;21500;-68
2021/03/31 07:35:38;;;;;;;11.08;7.75;;;;;;;17.43;45.83;100685.66;1779791;80;21378;-67
2021/03/31 07:38:07;;;;;;;11.53;7.55;;;;;;;17.45;45.96;100678.24;1782511;80;21413;-68
2021/03/31 07:40:37;;;;;;;10.25;8.50;;;;;;;17.46;45.76;100686.12;1766645;80;21612;-69
2021/03/31 07:43:10;;;;;;;9.68;7.83;;;;;;;17.48;45.70;100683.22;1776440;79;21227;-66
2021/03/31 07:45:45;;;;;;;9.03;7.67;;;;;;;17.48;45.79;100682.73;1766447;80;21592;-67
2021/03/31 07:48:13;;;;;;;9.60;8.20;;;;;;;17.49;45.76;100682.20;1772612;80;21340;-68
2021/03/31 07:50:40;;;;;;;8.85;7.80;;;;;;;17.50;45.66;100685.23;1773370;79;21550;-64
2021/03/31 07:53:08;;;;;;;11.10;7.95;;;;;;;17.51;45.78;100690.91;1768758;80;21592;-65
2021/03/31 07:55:40;;;;;;;9.63;8.63;;;;;;;17.52;45.69;100686.36;1773360;79;21159;-66
2021/03/31 07:58:28;;;;;;;9.45;7.70;;;;;;;17.53;45.67;100684.83;1775221;79;21112;-64
2021/03/31 08:01:02;;;;;;;10.88;8.55;;;;;;;17.54;45.73;100685.16;1768070;79;21384;-67
2021/03/31 08:03:35;;;;;;;9.48;7.78;;;;;;;17.54;45.57;100684.31;1746013;80;21194;-64
2021/03/31 08:06:13;;;;;;;9.03;7.53;;;;;;;17.56;45.52;100678.23;1741324;82;25779;-65
2021/03/31 08:08:50;;;;;;;11.28;7.40;;;;;;;17.56;45.40;100679.09;1745840;81;21182;-64
2021/03/31 08:11:40;;;;;;;8.38;7.50;;;;;;;17.57;45.50;100671.85;1767926;80;21199;-65
2021/03/31 08:14:19;;;;;;;9.03;8.08;;;;;;;17.59;45.37;100671.97;1758372;80;21615;-65
2021/03/31 08:16:50;;;;;;;8.98;8.00;;;;;;;17.60;45.27;100670.96;1767229;80;21215;-66
2021/03/31 08:19:25;;;;;;;9.18;7.65;;;;;;;17.61;45.30;100664.55;1753171;81;21667;-65
2021/03/31 08:21:53;;;;;;;9.95;8.03;;;;;;;17.63;45.29;100665.70;1742183;81;21201;-66
2021/03/31 08:24:44;;;;;;;13.65;8.53;;;;;;;17.65;45.29;100659.62;1750838;81;21183;-66
2021/03/31 08:27:12;;;;;;;9.98;7.50;;;;;;;17.66;45.23;100655.41;1744360;81;21257;-66
2021/03/31 08:29:44;;;;;;;7.92;7.12;;;;;;;17.69;45.27;100655.53;1773496;80;21108;-68
2021/03/31 08:32:12;;;;;;;9.78;8.58;;;;;;;17.70;45.32;100650.48;1741773;81;21207;-68
2021/03/31 08:34:39;;;;;;;8.68;7.70;;;;;;;17.72;45.26;100648.95;1771663;80;21163;-67
2021/03/31 08:37:19;;;;;;;9.13;7.72;;;;;;;17.73;45.24;100647.43;1746978;81;21171;-66
2021/03/31 08:39:47;;;;;;;10.23;8.63;;;;;;;17.76;45.16;100650.23;1735615;82;21984;-68
2021/03/31 08:42:14;;;;;;;14.38;8.50;;;;;;;17.78;45.17;100649.52;1751336;81;21185;-67
2021/03/31 08:44:51;;;;;;;9.95;8.63;;;;;;;17.79;45.21;100638.59;1770561;80;21176;-69
2021/03/31 08:47:19;;;;;;;9.58;8.45;;;;;;;17.83;45.11;100637.17;1765339;80;21215;-67
2021/03/31 08:49:51;;;;;;;;;;;;;;;17.84;45.17;100644.22;1779874;80;21183;-64
2021/03/31 08:54:56;;;;;;;10.13;8.58;;;;;;;17.86;45.38;100627.91;1803438;77;28697;-66
2021/03/31 08:57:29;;;;;;;11.12;7.50;;;;;;;17.86;45.41;100633.28;1797863;79;21195;-67
2021/03/31 08:59:59;;;;;;;10.97;8.07;;;;;;;17.90;45.53;100632.39;1797441;77;22283;-69
2021/03/31 09:02:29;;;;;;;9.50;7.80;;;;;;;17.94;45.52;100632.31;1772890;79;21209;-71
2021/03/31 09:04:59;;;;;;;9.03;7.78;;;;;;;17.96;45.58;100633.77;1777163;80;21201;-69
2021/03/31 09:07:27;;;;;;;9.50;8.25;;;;;;;17.99;45.47;100633.39;1776188;80;21153;-71
2021/03/31 09:09:55;;;;;;;9.45;8.33;;;;;;;18.02;45.50;100630.82;1758038;80;21211;-68
2021/03/31 09:12:28;;;;;;;10.82;9.03;;;;;;;18.04;45.48;100628.27;1776487;80;21210;-68
2021/03/31 09:14:57;;;;;;;8.80;7.72;;;;;;;18.06;45.42;100628.91;1772892;78;21125;-65
2021/03/31 09:17:30;;;;;;;9.58;8.10;;;;;;;18.10;45.34;100625.81;1799342;78;21552;-67
2021/03/31 09:20:07;;;;;;;9.70;8.70;;;;;;;18.10;45.38;100623.97;1797244;78;21138;-74
2021/03/31 09:22:35;;;;;;;11.10;8.43;;;;;;;18.13;45.41;100620.88;1769022;80;21139;-67
2021/03/31 09:25:10;;;;;;;11.55;8.65;;;;;;;18.15;45.39;100619.34;1780488;80;22258;-69
2021/03/31 09:27:39;;;;;;;10.05;9.05;;;;;;;18.16;45.39;100622.36;1774348;80;21214;-67
2021/03/31 09:30:13;;;;;;;9.98;8.60;;;;;;;18.16;45.35;100621.02;1775229;80;21093;-69
2021/03/31 09:32:56;;;;;;;11.35;8.23;;;;;;;18.18;45.32;100621.13;1790882;78;21111;-66
2021/03/31 09:35:24;;;;;;;9.35;8.45;;;;;;;18.19;45.38;100627.33;1773720;79;21202;-68
2021/03/31 09:37:59;;;;;;;12.23;9.23;;;;;;;18.19;45.43;100624.11;1774092;80;21146;-65
2021/03/31 09:40:36;;;;;;;11.05;9.83;;;;;;;18.20;45.37;100619.59;1774295;80;21555;-67
2021/03/31 09:43:15;;;;;;;8.90;8.00;;;;;;;18.22;45.25;100625.08;1787945;80;21178;-66
2021/03/31 09:45:49;;;;;;;11.43;9.28;;;;;;;18.22;45.57;100627.77;1734733;80;21161;-66
2021/03/31 09:48:38;;;;;;;12.37;9.45;;;;;;;18.22;45.49;100623.73;1781698;80;21143;-68
2021/03/31 09:51:18;;;;;;;12.33;8.98;;;;;;;18.23;45.28;100623.22;1780447;78;21204;-65
2021/03/31 09:54:04;;;;;;;9.43;8.30;;;;;;;18.23;45.23;100619.18;1740353;81;21233;-67
2021/03/31 09:56:54;;;;;;;9.35;8.45;;;;;;;18.27;45.44;100626.67;1802756;79;28664;-67
2021/03/31 09:59:38;;;;;;;10.05;8.80;;;;;;;18.23;45.41;100620.03;1750420;80;21407;-66
2021/03/31 10:02:12;;;;;;;8.10;7.25;;;;;;;18.22;45.23;100614.32;1803052;79;22102;-69
2021/03/31 10:04:51;;;;;;;10.75;8.58;;;;;;;18.22;45.16;100611.63;1769640;80;21207;-65
2021/03/31 10:07:23;;;;;;;9.68;8.68;;;;;;;18.23;45.10;100608.42;1740353;81;21195;-67
2021/03/31 10:10:00;;;;;;;10.05;8.98;;;;;;;18.23;45.20;100613.31;1741449;80;21159;-66
2021/03/31 10:12:33;;;;;;;9.00;7.87;;;;;;;18.24;45.09;100610.09;1759167;80;21587;-66
2021/03/31 10:15:13;;;;;;;9.45;8.50;;;;;;;18.25;45.15;100616.63;1726363;81;21248;-65
2021/03/31 10:17:44;;;;;;;10.23;8.65;;;;;;;18.25;45.14;100609.05;1753001;81;21199;-64
2021/03/31 10:20:20;;;;;;;10.45;8.33;;;;;;;18.24;45.13;100610.92;1779048;80;21557;-65
2021/03/31 10:22:54;;;;;;;9.70;8.70;;;;;;;18.25;45.29;100603.19;1772096;80;21151;-67
2021/03/31 10:25:27;;;;;;;10.10;8.38;;;;;;;18.26;45.21;100599.45;1754417;80;21188;-66
2021/03/31 10:27:58;;;;;;;10.03;8.80;;;;;;;18.27;45.26;100598.44;1747742;80;21194;-66
2021/03/31 10:30:33;;;;;;;11.65;9.10;;;;;;;18.27;45.21;100603.81;1773950;80;21179;-66
2021/03/31 10:33:02;;;;;;;9.48;8.48;;;;;;;18.28;45.35;100596.05;1750241;81;21183;-66
2021/03/31 10:35:46;;;;;;;10.93;9.25;;;;;;;18.28;45.28;100593.36;1758168;81;21238;-66
2021/03/31 10:38:19;;;;;;;10.63;9.53;;;;;;;18.28;45.24;100587.98;1753768;81;21218;-69
2021/03/31 10:41:06;;;;;;;9.98;8.43;;;;;;;18.30;45.26;100600.41;1761990;81;21342;-66
2021/03/31 10:56:46;;;;;;;13.58;10.32;;;;;;;19.00;53.35;100585.83;1764021;79;22765;-70
2021/03/31 10:59:08;;;;;;;13.75;10.85;;;;;;;19.07;52.26;100572.40;1721600;82;21622;-70
2021/03/31 11:01:35;;;;;;;13.35;10.23;;;;;;;19.15;51.38;100573.55;1744506;81;21160;-71
2021/03/31 11:04:04;;;;;;;15.32;10.23;;;;;;;19.20;50.92;100572.42;1741638;81;21242;-69
2021/03/31 11:06:32;;;;;;;12.95;10.35;;;;;;;19.23;50.88;100572.00;1745692;81;21182;-66
2021/03/31 11:09:00;;;;;;;13.40;11.55;;;;;;;19.26;50.96;100560.00;1737112;81;21146;-64
2021/03/31 11:11:27;;;;;;;13.95;10.53;;;;;;;19.30;50.83;100563.13;1743209;81;21171;-67
2021/03/31 11:13:55;;;;;;;13.93;10.95;;;;;;;19.30;50.55;100561.25;1742008;81;21466;-67
2021/03/31 11:16:25;;;;;;;14.03;10.38;;;;;;;19.33;50.38;100554.09;1750844;81;21226;-66
2021/03/31 11:19:01;;;;;;;20.77;14.20;;;;;;;19.34;50.03;100555.76;1731847;81;21203;-67
2021/03/31 11:26:54;;;;;;;25.90;18.40;;;;;;;19.32;47.51;100555.14;1732651;81;22008;-67
2021/03/31 11:29:22;;;;;;;26.07;18.80;;;;;;;19.26;46.87;100545.19;1751462;81;21600;-67
2021/03/31 11:31:50;;;;;;;27.22;19.48;;;;;;;19.23;46.46;100551.80;1736642;81;21147;-70
2021/03/31 11:34:17;;;;;;;27.75;20.00;;;;;;;19.20;46.06;100554.06;1742193;81;21092;-68
2021/03/31 11:36:49;;;;;;;28.98;20.30;;;;;;;19.17;45.67;100545.06;1744495;81;21134;-69
2021/03/31 11:39:18;;;;;;;33.02;21.45;;;;;;;19.13;45.37;100542.48;1737599;81;21411;-69
2021/03/31 11:41:48;;;;;;;26.90;19.75;;;;;;;19.09;45.17;100556.86;1735515;81;21627;-67
2021/03/31 11:44:15;;;;;;;28.62;20.97;;;;;;;19.09;44.92;100546.62;1734036;81;21672;-68
2021/03/31 11:46:44;;;;;;;24.77;19.65;;;;;;;19.07;44.70;100541.95;1732438;81;21182;-67
2021/03/31 11:49:12;;;;;;;27.30;21.15;;;;;;;19.04;44.54;100529.21;1729062;81;21178;-67
2021/03/31 11:51:39;;;;;;;25.25;19.23;;;;;;;19.03;44.40;100528.06;1730969;81;21407;-67
2021/03/31 11:54:08;;;;;;;25.65;20.27;;;;;;;19.02;44.27;100542.02;1746550;81;21184;-66
2021/03/31 11:56:35;;;;;;;22.95;19.02;;;;;;;19.03;44.11;100530.23;1726280;82;21143;-68
2021/03/31 11:59:03;;;;;;;28.40;19.82;;;;;;;19.04;44.15;100530.56;1720498;82;21105;-68
2021/03/31 12:01:31;;;;;;;26.80;20.17;;;;;;;19.04;44.18;100522.48;1746088;81;21384;-69
2021/03/31 12:03:58;;;;;;;27.22;22.10;;;;;;;18.99;44.05;100520.91;1715782;81;21289;-67
2021/03/31 12:06:26;;;;;;;25.45;20.60;;;;;;;19.07;43.80;100519.89;1751843;81;21629;-67
2021/03/31 12:08:54;;;;;;;27.40;21.27;;;;;;;19.09;43.85;100523.73;1735590;80;21657;-70
2021/03/31 12:11:21;;;;;;;20.80;16.05;;;;;;;19.08;43.68;100530.13;1751291;81;21156;-64
2021/03/31 12:13:49;;;;;;;19.30;14.70;;;;;;;19.08;44.34;100523.40;1745061;81;21133;-64
2021/03/31 12:16:16;;;;;;;20.23;18.10;;;;;;;19.10;46.96;100515.95;1738812;82;21356;-65